sensor_id;sensor_type;location;lat;lon;timestamp;P1;durP1;ratioP1;P2;durP2;ratioP2
10311;SDS011;5201;48.776;9.128;2022-10-04T00:02:52;14.07;;;6.40;;
10311;SDS011;5201;48.776;9.128;2022-10-04T00:07:53;8.97;;;5.40;;
10311;SDS011;5201;48.776;9.128;2022-10-04T00:10:24;8.50;;;5.83;;
10311;SDS011;5201;48.776;9.128;2022-10-04T00:15:28;8.93;;;6.37;;
10311;SDS011;5201;48.776;9.128;2022-10-04T00:18:19;11.27;;;6.30;;
10311;SDS011;5201;48.776;9.128;2022-10-04T00:25:52;9.10;;;5.20;;
10311;SDS011;5201;48.776;9.128;2022-10-04T00:33:38;6.03;;;4.43;;
10311;SDS011;5201;48.776;9.128;2022-10-04T00:41:46;9.93;;;5.13;;
10311;SDS011;5201;48.776;9.128;2022-10-04T00:44:17;10.80;;;5.37;;
10311;SDS011;5201;48.776;9.128;2022-10-04T00:46:48;7.53;;;4.93;;
10311;SDS011;5201;48.776;9.128;2022-10-04T00:49:15;9.63;;;5.00;;
10311;SDS011;5201;48.776;9.128;2022-10-04T00:51:45;7.03;;;4.60;;
10311;SDS011;5201;48.776;9.128;2022-10-04T00:54:20;8.70;;;4.33;;
10311;SDS011;5201;48.776;9.128;2022-10-04T00:57:10;11.33;;;4.97;;
10311;SDS011;5201;48.776;9.128;2022-10-04T00:59:51;13.23;;;4.80;;
10311;SDS011;5201;48.776;9.128;2022-10-04T01:02:20;7.40;;;4.53;;
10311;SDS011;5201;48.776;9.128;2022-10-04T01:05:02;5.43;;;4.50;;
10311;SDS011;5201;48.776;9.128;2022-10-04T01:07:41;6.33;;;4.63;;
10311;SDS011;5201;48.776;9.128;2022-10-04T01:15:44;4.30;;;3.70;;
10311;SDS011;5201;48.776;9.128;2022-10-04T01:18:32;7.50;;;4.13;;
10311;SDS011;5201;48.776;9.128;2022-10-04T01:21:41;6.83;;;4.90;;
10311;SDS011;5201;48.776;9.128;2022-10-04T01:29:33;9.93;;;4.57;;
10311;SDS011;5201;48.776;9.128;2022-10-04T01:31:46;5.60;;;4.27;;
10311;SDS011;5201;48.776;9.128;2022-10-04T01:34:14;8.27;;;4.50;;
10311;SDS011;5201;48.776;9.128;2022-10-04T01:36:42;8.57;;;4.00;;
10311;SDS011;5201;48.776;9.128;2022-10-04T01:39:11;12.63;;;4.30;;
10311;SDS011;5201;48.776;9.128;2022-10-04T01:41:40;7.67;;;4.10;;
10311;SDS011;5201;48.776;9.128;2022-10-04T01:44:17;5.57;;;3.53;;
10311;SDS011;5201;48.776;9.128;2022-10-04T01:46:54;10.90;;;3.60;;
10311;SDS011;5201;48.776;9.128;2022-10-04T01:49:25;6.97;;;3.93;;
10311;SDS011;5201;48.776;9.128;2022-10-04T01:51:58;5.40;;;4.30;;
10311;SDS011;5201;48.776;9.128;2022-10-04T01:55:19;7.87;;;4.57;;
10311;SDS011;5201;48.776;9.128;2022-10-04T01:57:36;9.60;;;4.77;;
10311;SDS011;5201;48.776;9.128;2022-10-04T02:00:06;5.50;;;4.00;;
10311;SDS011;5201;48.776;9.128;2022-10-04T02:02:42;8.20;;;4.30;;
10311;SDS011;5201;48.776;9.128;2022-10-04T02:05:17;6.70;;;3.97;;
10311;SDS011;5201;48.776;9.128;2022-10-04T02:07:50;14.20;;;4.40;;
10311;SDS011;5201;48.776;9.128;2022-10-04T02:10:19;8.30;;;4.37;;
10311;SDS011;5201;48.776;9.128;2022-10-04T02:12:47;4.40;;;3.80;;
10311;SDS011;5201;48.776;9.128;2022-10-04T02:15:14;7.97;;;4.00;;
10311;SDS011;5201;48.776;9.128;2022-10-04T02:17:42;7.23;;;3.67;;
10311;SDS011;5201;48.776;9.128;2022-10-04T02:20:19;4.83;;;3.73;;
10311;SDS011;5201;48.776;9.128;2022-10-04T02:22:51;4.77;;;3.60;;
10311;SDS011;5201;48.776;9.128;2022-10-04T02:25:23;7.43;;;4.10;;
10311;SDS011;5201;48.776;9.128;2022-10-04T02:27:51;5.77;;;4.37;;
10311;SDS011;5201;48.776;9.128;2022-10-04T02:30:17;8.17;;;3.67;;
10311;SDS011;5201;48.776;9.128;2022-10-04T02:32:43;6.63;;;3.70;;
10311;SDS011;5201;48.776;9.128;2022-10-04T02:35:21;9.37;;;4.10;;
10311;SDS011;5201;48.776;9.128;2022-10-04T02:37:52;5.50;;;4.57;;
10311;SDS011;5201;48.776;9.128;2022-10-04T02:48:48;10.80;;;3.83;;
10311;SDS011;5201;48.776;9.128;2022-10-04T02:51:23;6.07;;;3.87;;
10311;SDS011;5201;48.776;9.128;2022-10-04T02:56:29;8.63;;;4.40;;
10311;SDS011;5201;48.776;9.128;2022-10-04T02:59:00;8.13;;;4.13;;
10311;SDS011;5201;48.776;9.128;2022-10-04T03:04:15;11.83;;;3.93;;
10311;SDS011;5201;48.776;9.128;2022-10-04T03:06:42;8.67;;;3.77;;
10311;SDS011;5201;48.776;9.128;2022-10-04T03:09:09;6.30;;;5.20;;
10311;SDS011;5201;48.776;9.128;2022-10-04T03:11:36;6.77;;;4.80;;
10311;SDS011;5201;48.776;9.128;2022-10-04T03:14:05;10.83;;;4.77;;
10311;SDS011;5201;48.776;9.128;2022-10-04T03:16:53;8.63;;;4.10;;
10311;SDS011;5201;48.776;9.128;2022-10-04T03:19:22;7.17;;;4.20;;
10311;SDS011;5201;48.776;9.128;2022-10-04T03:21:51;9.43;;;3.87;;
10311;SDS011;5201;48.776;9.128;2022-10-04T03:24:20;8.60;;;3.60;;
10311;SDS011;5201;48.776;9.128;2022-10-04T03:27:14;6.97;;;3.20;;
10311;SDS011;5201;48.776;9.128;2022-10-04T03:29:44;8.27;;;3.87;;
10311;SDS011;5201;48.776;9.128;2022-10-04T03:32:13;5.37;;;3.17;;
10311;SDS011;5201;48.776;9.128;2022-10-04T03:34:43;4.67;;;3.27;;
10311;SDS011;5201;48.776;9.128;2022-10-04T03:37:23;7.47;;;3.47;;
10311;SDS011;5201;48.776;9.128;2022-10-04T03:39:51;5.13;;;3.40;;
10311;SDS011;5201;48.776;9.128;2022-10-04T03:42:19;8.63;;;3.57;;
10311;SDS011;5201;48.776;9.128;2022-10-04T03:44:51;6.33;;;4.07;;
10311;SDS011;5201;48.776;9.128;2022-10-04T03:47:20;6.87;;;3.60;;
10311;SDS011;5201;48.776;9.128;2022-10-04T03:49:50;6.00;;;3.63;;
10311;SDS011;5201;48.776;9.128;2022-10-04T03:52:41;4.80;;;3.10;;
10311;SDS011;5201;48.776;9.128;2022-10-04T03:55:09;4.83;;;3.23;;
10311;SDS011;5201;48.776;9.128;2022-10-04T03:57:38;5.83;;;3.00;;
10311;SDS011;5201;48.776;9.128;2022-10-04T04:00:04;4.60;;;2.83;;
10311;SDS011;5201;48.776;9.128;2022-10-04T04:02:32;3.80;;;2.40;;
10311;SDS011;5201;48.776;9.128;2022-10-04T04:05:34;5.00;;;3.20;;
10311;SDS011;5201;48.776;9.128;2022-10-04T04:08:17;4.37;;;3.70;;
10311;SDS011;5201;48.776;9.128;2022-10-04T04:10:57;4.13;;;2.60;;
10311;SDS011;5201;48.776;9.128;2022-10-04T04:15:55;4.87;;;2.97;;
10311;SDS011;5201;48.776;9.128;2022-10-04T04:18:24;4.73;;;3.03;;
10311;SDS011;5201;48.776;9.128;2022-10-04T04:21:00;4.13;;;2.80;;
10311;SDS011;5201;48.776;9.128;2022-10-04T04:23:33;8.40;;;3.10;;
10311;SDS011;5201;48.776;9.128;2022-10-04T04:34:28;7.70;;;2.63;;
10311;SDS011;5201;48.776;9.128;2022-10-04T04:37:00;4.23;;;2.30;;
10311;SDS011;5201;48.776;9.128;2022-10-04T04:39:27;4.20;;;2.47;;
10311;SDS011;5201;48.776;9.128;2022-10-04T04:47:38;5.00;;;3.60;;
10311;SDS011;5201;48.776;9.128;2022-10-04T04:50:12;8.03;;;4.07;;
10311;SDS011;5201;48.776;9.128;2022-10-04T04:52:42;11.43;;;5.60;;
10311;SDS011;5201;48.776;9.128;2022-10-04T04:55:17;7.90;;;3.83;;
10311;SDS011;5201;48.776;9.128;2022-10-04T04:57:43;13.23;;;6.67;;
10311;SDS011;5201;48.776;9.128;2022-10-04T05:00:15;13.40;;;5.90;;
10311;SDS011;5201;48.776;9.128;2022-10-04T05:02:49;8.50;;;5.20;;
10311;SDS011;5201;48.776;9.128;2022-10-04T05:05:18;8.07;;;3.97;;
10311;SDS011;5201;48.776;9.128;2022-10-04T05:10:46;6.30;;;4.23;;
10311;SDS011;5201;48.776;9.128;2022-10-04T05:13:44;4.23;;;3.07;;
10311;SDS011;5201;48.776;9.128;2022-10-04T05:16:20;7.40;;;3.30;;
10311;SDS011;5201;48.776;9.128;2022-10-04T05:18:54;8.23;;;3.67;;
10311;SDS011;5201;48.776;9.128;2022-10-04T05:21:26;3.73;;;2.83;;
10311;SDS011;5201;48.776;9.128;2022-10-04T05:23:57;6.20;;;3.27;;
10311;SDS011;5201;48.776;9.128;2022-10-04T05:26:34;3.47;;;2.60;;
10311;SDS011;5201;48.776;9.128;2022-10-04T05:29:01;4.13;;;2.50;;
10311;SDS011;5201;48.776;9.128;2022-10-04T05:32:14;7.50;;;2.90;;
10311;SDS011;5201;48.776;9.128;2022-10-04T05:34:35;8.00;;;2.57;;
10311;SDS011;5201;48.776;9.128;2022-10-04T05:42:46;9.80;;;4.37;;
10311;SDS011;5201;48.776;9.128;2022-10-04T05:45:21;7.83;;;3.73;;
10311;SDS011;5201;48.776;9.128;2022-10-04T05:47:50;14.47;;;4.57;;
10311;SDS011;5201;48.776;9.128;2022-10-04T05:50:39;8.47;;;4.67;;
10311;SDS011;5201;48.776;9.128;2022-10-04T05:53:51;7.60;;;3.60;;
10311;SDS011;5201;48.776;9.128;2022-10-04T06:01:25;4.40;;;3.03;;
10311;SDS011;5201;48.776;9.128;2022-10-04T06:06:46;3.47;;;2.20;;
10311;SDS011;5201;48.776;9.128;2022-10-04T06:15:24;2.97;;;1.70;;
10311;SDS011;5201;48.776;9.128;2022-10-04T06:18:16;3.03;;;2.57;;
10311;SDS011;5201;48.776;9.128;2022-10-04T06:20:51;7.07;;;2.90;;
10311;SDS011;5201;48.776;9.128;2022-10-04T06:23:27;5.10;;;2.47;;
10311;SDS011;5201;48.776;9.128;2022-10-04T06:26:06;10.83;;;3.30;;
10311;SDS011;5201;48.776;9.128;2022-10-04T06:28:40;2.97;;;2.37;;
10311;SDS011;5201;48.776;9.128;2022-10-04T06:36:54;5.47;;;2.07;;
10311;SDS011;5201;48.776;9.128;2022-10-04T06:45:01;4.80;;;2.40;;
10311;SDS011;5201;48.776;9.128;2022-10-04T06:53:10;4.37;;;2.63;;
10311;SDS011;5201;48.776;9.128;2022-10-04T06:58:55;5.63;;;3.00;;
10311;SDS011;5201;48.776;9.128;2022-10-04T07:01:30;8.33;;;5.17;;
10311;SDS011;5201;48.776;9.128;2022-10-04T07:06:30;5.50;;;2.77;;
10311;SDS011;5201;48.776;9.128;2022-10-04T07:09:03;4.77;;;3.13;;
10311;SDS011;5201;48.776;9.128;2022-10-04T07:11:40;3.13;;;2.13;;
10311;SDS011;5201;48.776;9.128;2022-10-04T07:14:17;9.63;;;2.40;;
10311;SDS011;5201;48.776;9.128;2022-10-04T07:27:03;6.07;;;3.53;;
10311;SDS011;5201;48.776;9.128;2022-10-04T07:29:36;14.20;;;2.90;;
10311;SDS011;5201;48.776;9.128;2022-10-04T07:32:15;3.03;;;2.30;;
10311;SDS011;5201;48.776;9.128;2022-10-04T07:37:17;2.47;;;2.27;;
10311;SDS011;5201;48.776;9.128;2022-10-04T07:42:43;6.07;;;3.10;;
10311;SDS011;5201;48.776;9.128;2022-10-04T07:45:16;3.93;;;2.17;;
10311;SDS011;5201;48.776;9.128;2022-10-04T07:47:46;3.90;;;2.20;;
10311;SDS011;5201;48.776;9.128;2022-10-04T07:50:18;5.43;;;2.27;;
10311;SDS011;5201;48.776;9.128;2022-10-04T07:58:07;8.73;;;3.00;;
10311;SDS011;5201;48.776;9.128;2022-10-04T08:00:47;5.73;;;2.47;;
10311;SDS011;5201;48.776;9.128;2022-10-04T08:06:52;9.47;;;3.67;;
10311;SDS011;5201;48.776;9.128;2022-10-04T08:12:20;11.53;;;3.80;;
10311;SDS011;5201;48.776;9.128;2022-10-04T08:17:59;4.87;;;3.63;;
10311;SDS011;5201;48.776;9.128;2022-10-04T08:32:22;4.93;;;2.97;;
10311;SDS011;5201;48.776;9.128;2022-10-04T08:52:15;8.83;;;2.40;;
10311;SDS011;5201;48.776;9.128;2022-10-04T09:05:40;2.57;;;2.00;;
10311;SDS011;5201;48.776;9.128;2022-10-04T09:08:28;11.63;;;1.90;;
10311;SDS011;5201;48.776;9.128;2022-10-04T09:16:22;6.13;;;1.93;;
10311;SDS011;5201;48.776;9.128;2022-10-04T09:19:15;2.50;;;1.63;;
10311;SDS011;5201;48.776;9.128;2022-10-04T09:27:09;5.40;;;1.40;;
10311;SDS011;5201;48.776;9.128;2022-10-04T09:38:05;2.20;;;1.33;;
10311;SDS011;5201;48.776;9.128;2022-10-04T09:40:49;3.07;;;1.57;;
10311;SDS011;5201;48.776;9.128;2022-10-04T10:00:15;3.37;;;2.03;;
10311;SDS011;5201;48.776;9.128;2022-10-04T10:11:57;1.90;;;1.30;;
10311;SDS011;5201;48.776;9.128;2022-10-04T10:15:07;10.27;;;1.40;;
10311;SDS011;5201;48.776;9.128;2022-10-04T10:23:05;2.37;;;1.50;;
10311;SDS011;5201;48.776;9.128;2022-10-04T10:48:14;2.30;;;1.40;;
10311;SDS011;5201;48.776;9.128;2022-10-04T10:50:48;3.93;;;1.80;;
10311;SDS011;5201;48.776;9.128;2022-10-04T10:54:11;2.27;;;1.53;;
10311;SDS011;5201;48.776;9.128;2022-10-04T10:59:25;9.20;;;1.53;;
10311;SDS011;5201;48.776;9.128;2022-10-04T11:05:08;2.07;;;1.20;;
10311;SDS011;5201;48.776;9.128;2022-10-04T11:08:08;2.30;;;1.40;;
10311;SDS011;5201;48.776;9.128;2022-10-04T11:10:58;3.67;;;1.40;;
10311;SDS011;5201;48.776;9.128;2022-10-04T11:13:48;5.10;;;1.63;;
10311;SDS011;5201;48.776;9.128;2022-10-04T11:28:04;3.10;;;1.53;;
10311;SDS011;5201;48.776;9.128;2022-10-04T11:44:50;3.73;;;1.67;;
10311;SDS011;5201;48.776;9.128;2022-10-04T11:58:51;2.83;;;1.13;;
10311;SDS011;5201;48.776;9.128;2022-10-04T12:07:02;4.33;;;1.30;;
10311;SDS011;5201;48.776;9.128;2022-10-04T12:09:48;2.97;;;1.30;;
10311;SDS011;5201;48.776;9.128;2022-10-04T12:26:18;3.17;;;1.20;;
10311;SDS011;5201;48.776;9.128;2022-10-04T12:31:49;2.53;;;0.80;;
10311;SDS011;5201;48.776;9.128;2022-10-04T12:35:07;3.53;;;1.00;;
10311;SDS011;5201;48.776;9.128;2022-10-04T12:45:32;3.57;;;0.83;;
10311;SDS011;5201;48.776;9.128;2022-10-04T12:48:07;1.03;;;0.73;;
10311;SDS011;5201;48.776;9.128;2022-10-04T12:53:51;0.90;;;0.70;;
10311;SDS011;5201;48.776;9.128;2022-10-04T13:02:22;1.53;;;0.80;;
10311;SDS011;5201;48.776;9.128;2022-10-04T13:05:39;0.70;;;0.70;;
10311;SDS011;5201;48.776;9.128;2022-10-04T13:11:01;1.93;;;0.60;;
10311;SDS011;5201;48.776;9.128;2022-10-04T13:18:56;5.57;;;1.30;;
10311;SDS011;5201;48.776;9.128;2022-10-04T13:24:48;1.97;;;0.97;;
10311;SDS011;5201;48.776;9.128;2022-10-04T13:45:13;3.97;;;1.30;;
10311;SDS011;5201;48.776;9.128;2022-10-04T13:47:33;3.17;;;1.13;;
10311;SDS011;5201;48.776;9.128;2022-10-04T14:18:30;2.30;;;1.40;;
10311;SDS011;5201;48.776;9.128;2022-10-04T14:45:31;1.70;;;0.87;;
10311;SDS011;5201;48.776;9.128;2022-10-04T14:48:46;2.10;;;1.07;;
10311;SDS011;5201;48.776;9.128;2022-10-04T14:54:09;5.23;;;1.20;;
10311;SDS011;5201;48.776;9.128;2022-10-04T14:56:59;4.17;;;1.20;;
10311;SDS011;5201;48.776;9.128;2022-10-04T14:59:39;2.97;;;1.00;;
10311;SDS011;5201;48.776;9.128;2022-10-04T15:02:18;3.90;;;1.00;;
10311;SDS011;5201;48.776;9.128;2022-10-04T15:10:37;1.67;;;1.07;;
10311;SDS011;5201;48.776;9.128;2022-10-04T15:13:30;2.67;;;1.10;;
10311;SDS011;5201;48.776;9.128;2022-10-04T15:38:51;1.60;;;0.97;;
10311;SDS011;5201;48.776;9.128;2022-10-04T15:44:23;5.20;;;0.93;;
10311;SDS011;5201;48.776;9.128;2022-10-04T15:47:14;3.40;;;0.90;;
10311;SDS011;5201;48.776;9.128;2022-10-04T15:49:47;1.23;;;1.07;;
10311;SDS011;5201;48.776;9.128;2022-10-04T16:03:14;2.03;;;1.10;;
10311;SDS011;5201;48.776;9.128;2022-10-04T16:08:25;1.67;;;0.83;;
10311;SDS011;5201;48.776;9.128;2022-10-04T16:11:12;5.30;;;1.20;;
10311;SDS011;5201;48.776;9.128;2022-10-04T16:14:31;1.43;;;1.00;;
10311;SDS011;5201;48.776;9.128;2022-10-04T16:17:21;0.97;;;0.87;;
10311;SDS011;5201;48.776;9.128;2022-10-04T16:20:02;0.80;;;0.80;;
10311;SDS011;5201;48.776;9.128;2022-10-04T16:25:48;2.63;;;0.70;;
10311;SDS011;5201;48.776;9.128;2022-10-04T16:30:58;2.43;;;0.80;;
10311;SDS011;5201;48.776;9.128;2022-10-04T16:33:53;1.67;;;1.03;;
10311;SDS011;5201;48.776;9.128;2022-10-04T16:36:49;1.93;;;1.10;;
10311;SDS011;5201;48.776;9.128;2022-10-04T16:39:32;1.70;;;1.10;;
10311;SDS011;5201;48.776;9.128;2022-10-04T16:42:25;4.10;;;1.07;;
10311;SDS011;5201;48.776;9.128;2022-10-04T16:47:32;4.90;;;1.37;;
10311;SDS011;5201;48.776;9.128;2022-10-04T16:56:11;7.40;;;1.10;;
10311;SDS011;5201;48.776;9.128;2022-10-04T16:58:41;1.50;;;1.00;;
10311;SDS011;5201;48.776;9.128;2022-10-04T17:06:57;1.70;;;1.53;;
10311;SDS011;5201;48.776;9.128;2022-10-04T17:12:20;5.73;;;3.50;;
10311;SDS011;5201;48.776;9.128;2022-10-04T17:15:07;7.77;;;4.60;;
10311;SDS011;5201;48.776;9.128;2022-10-04T17:17:45;7.90;;;3.10;;
10311;SDS011;5201;48.776;9.128;2022-10-04T17:25:49;3.07;;;2.00;;
10311;SDS011;5201;48.776;9.128;2022-10-04T17:28:33;5.07;;;2.30;;
10311;SDS011;5201;48.776;9.128;2022-10-04T17:36:36;5.20;;;1.70;;
10311;SDS011;5201;48.776;9.128;2022-10-04T17:47:32;4.13;;;1.60;;
10311;SDS011;5201;48.776;9.128;2022-10-04T17:50:27;2.87;;;1.23;;
10311;SDS011;5201;48.776;9.128;2022-10-04T17:53:18;2.20;;;1.40;;
10311;SDS011;5201;48.776;9.128;2022-10-04T17:56:07;7.10;;;1.70;;
10311;SDS011;5201;48.776;9.128;2022-10-04T18:04:06;1.30;;;1.20;;
10311;SDS011;5201;48.776;9.128;2022-10-04T18:07:36;2.57;;;1.83;;
10311;SDS011;5201;48.776;9.128;2022-10-04T18:09:39;4.00;;;1.30;;
10311;SDS011;5201;48.776;9.128;2022-10-04T18:12:09;3.00;;;1.80;;
10311;SDS011;5201;48.776;9.128;2022-10-04T18:14:45;2.70;;;1.83;;
10311;SDS011;5201;48.776;9.128;2022-10-04T18:22:41;3.10;;;1.80;;
10311;SDS011;5201;48.776;9.128;2022-10-04T18:25:15;2.97;;;1.77;;
10311;SDS011;5201;48.776;9.128;2022-10-04T18:28:31;7.43;;;1.97;;
10311;SDS011;5201;48.776;9.128;2022-10-04T18:30:32;3.27;;;1.60;;
10311;SDS011;5201;48.776;9.128;2022-10-04T18:33:12;4.27;;;1.83;;
10311;SDS011;5201;48.776;9.128;2022-10-04T18:35:48;2.73;;;1.87;;
10311;SDS011;5201;48.776;9.128;2022-10-04T18:40:57;2.90;;;2.07;;
10311;SDS011;5201;48.776;9.128;2022-10-04T18:43:38;2.33;;;1.80;;
10311;SDS011;5201;48.776;9.128;2022-10-04T18:48:39;5.20;;;2.10;;
10311;SDS011;5201;48.776;9.128;2022-10-04T18:54:13;2.87;;;1.93;;
10311;SDS011;5201;48.776;9.128;2022-10-04T19:02:39;4.53;;;2.43;;
10311;SDS011;5201;48.776;9.128;2022-10-04T19:05:30;4.07;;;2.10;;
10311;SDS011;5201;48.776;9.128;2022-10-04T19:08:03;6.67;;;2.90;;
10311;SDS011;5201;48.776;9.128;2022-10-04T19:11:04;6.93;;;2.43;;
10311;SDS011;5201;48.776;9.128;2022-10-04T19:13:47;5.90;;;2.10;;
10311;SDS011;5201;48.776;9.128;2022-10-04T19:27:08;3.13;;;1.90;;
10311;SDS011;5201;48.776;9.128;2022-10-04T19:29:57;4.23;;;2.03;;
10311;SDS011;5201;48.776;9.128;2022-10-04T19:32:41;3.00;;;1.40;;
10311;SDS011;5201;48.776;9.128;2022-10-04T19:44:22;3.17;;;2.07;;
10311;SDS011;5201;48.776;9.128;2022-10-04T19:47:15;2.60;;;1.90;;
10311;SDS011;5201;48.776;9.128;2022-10-04T19:49:51;6.80;;;2.53;;
10311;SDS011;5201;48.776;9.128;2022-10-04T20:00:29;3.80;;;1.93;;
10311;SDS011;5201;48.776;9.128;2022-10-04T20:02:56;2.50;;;1.97;;
10311;SDS011;5201;48.776;9.128;2022-10-04T20:05:21;5.23;;;2.23;;
10311;SDS011;5201;48.776;9.128;2022-10-04T20:07:51;3.63;;;2.13;;
10311;SDS011;5201;48.776;9.128;2022-10-04T20:13:04;2.10;;;1.90;;
10311;SDS011;5201;48.776;9.128;2022-10-04T20:15:51;2.33;;;1.70;;
10311;SDS011;5201;48.776;9.128;2022-10-04T20:19:02;2.43;;;1.77;;
10311;SDS011;5201;48.776;9.128;2022-10-04T20:21:04;1.77;;;1.40;;
10311;SDS011;5201;48.776;9.128;2022-10-04T20:46:26;2.47;;;2.10;;
10311;SDS011;5201;48.776;9.128;2022-10-04T20:48:59;6.13;;;1.80;;
10311;SDS011;5201;48.776;9.128;2022-10-04T20:51:26;2.97;;;1.80;;
10311;SDS011;5201;48.776;9.128;2022-10-04T20:53:59;1.63;;;1.50;;
10311;SDS011;5201;48.776;9.128;2022-10-04T20:56:28;7.43;;;2.00;;
10311;SDS011;5201;48.776;9.128;2022-10-04T20:58:56;5.10;;;1.60;;
10311;SDS011;5201;48.776;9.128;2022-10-04T21:01:31;2.03;;;1.60;;
10311;SDS011;5201;48.776;9.128;2022-10-04T21:07:00;2.20;;;2.00;;
10311;SDS011;5201;48.776;9.128;2022-10-04T21:09:30;4.43;;;2.20;;
10311;SDS011;5201;48.776;9.128;2022-10-04T21:11:57;2.57;;;1.77;;
10311;SDS011;5201;48.776;9.128;2022-10-04T21:14:33;5.87;;;2.83;;
10311;SDS011;5201;48.776;9.128;2022-10-04T21:17:01;3.10;;;2.20;;
10311;SDS011;5201;48.776;9.128;2022-10-04T21:22:00;4.40;;;2.50;;
10311;SDS011;5201;48.776;9.128;2022-10-04T21:27:05;4.63;;;2.80;;
10311;SDS011;5201;48.776;9.128;2022-10-04T21:29:34;6.30;;;2.93;;
10311;SDS011;5201;48.776;9.128;2022-10-04T21:32:00;4.40;;;2.17;;
10311;SDS011;5201;48.776;9.128;2022-10-04T21:34:26;3.30;;;2.40;;
10311;SDS011;5201;48.776;9.128;2022-10-04T21:36:51;4.30;;;2.30;;
10311;SDS011;5201;48.776;9.128;2022-10-04T21:39:17;3.23;;;2.13;;
10311;SDS011;5201;48.776;9.128;2022-10-04T21:41:43;4.80;;;2.30;;
10311;SDS011;5201;48.776;9.128;2022-10-04T21:44:09;6.27;;;2.27;;
10311;SDS011;5201;48.776;9.128;2022-10-04T21:46:34;4.23;;;2.77;;
10311;SDS011;5201;48.776;9.128;2022-10-04T21:49:01;7.37;;;2.87;;
10311;SDS011;5201;48.776;9.128;2022-10-04T21:51:27;2.90;;;2.07;;
10311;SDS011;5201;48.776;9.128;2022-10-04T21:53:55;8.43;;;2.63;;
10311;SDS011;5201;48.776;9.128;2022-10-04T21:56:21;4.33;;;2.40;;
10311;SDS011;5201;48.776;9.128;2022-10-04T21:58:47;5.57;;;2.87;;
10311;SDS011;5201;48.776;9.128;2022-10-04T22:01:12;8.00;;;2.50;;
10311;SDS011;5201;48.776;9.128;2022-10-04T22:03:38;6.90;;;2.40;;
10311;SDS011;5201;48.776;9.128;2022-10-04T22:06:03;3.23;;;2.17;;
10311;SDS011;5201;48.776;9.128;2022-10-04T22:08:29;5.60;;;2.30;;
10311;SDS011;5201;48.776;9.128;2022-10-04T22:10:54;2.13;;;1.80;;
10311;SDS011;5201;48.776;9.128;2022-10-04T22:13:20;2.77;;;2.20;;
10311;SDS011;5201;48.776;9.128;2022-10-04T22:15:46;2.30;;;2.10;;
10311;SDS011;5201;48.776;9.128;2022-10-04T22:18:11;2.27;;;2.00;;
10311;SDS011;5201;48.776;9.128;2022-10-04T22:20:37;2.10;;;1.73;;
10311;SDS011;5201;48.776;9.128;2022-10-04T22:23:03;2.70;;;1.90;;
10311;SDS011;5201;48.776;9.128;2022-10-04T22:25:34;4.90;;;2.43;;
10311;SDS011;5201;48.776;9.128;2022-10-04T22:27:59;2.60;;;2.20;;
10311;SDS011;5201;48.776;9.128;2022-10-04T22:30:27;4.03;;;2.23;;
10311;SDS011;5201;48.776;9.128;2022-10-04T22:32:59;5.93;;;2.50;;
10311;SDS011;5201;48.776;9.128;2022-10-04T22:35:27;4.53;;;2.37;;
10311;SDS011;5201;48.776;9.128;2022-10-04T22:37:55;3.57;;;2.40;;
10311;SDS011;5201;48.776;9.128;2022-10-04T22:40:22;4.50;;;2.10;;
10311;SDS011;5201;48.776;9.128;2022-10-04T22:42:52;6.77;;;2.37;;
10311;SDS011;5201;48.776;9.128;2022-10-04T22:45:20;4.47;;;2.10;;
10311;SDS011;5201;48.776;9.128;2022-10-04T22:47:48;3.13;;;2.30;;
10311;SDS011;5201;48.776;9.128;2022-10-04T22:53:18;3.97;;;2.43;;
10311;SDS011;5201;48.776;9.128;2022-10-04T22:55:49;2.10;;;1.97;;
10311;SDS011;5201;48.776;9.128;2022-10-04T22:58:15;7.50;;;2.03;;
10311;SDS011;5201;48.776;9.128;2022-10-04T23:00:42;4.93;;;2.20;;
10311;SDS011;5201;48.776;9.128;2022-10-04T23:05:46;2.67;;;2.00;;
10311;SDS011;5201;48.776;9.128;2022-10-04T23:08:11;4.37;;;2.50;;
10311;SDS011;5201;48.776;9.128;2022-10-04T23:10:38;2.40;;;2.20;;
10311;SDS011;5201;48.776;9.128;2022-10-04T23:13:04;5.83;;;2.50;;
10311;SDS011;5201;48.776;9.128;2022-10-04T23:15:29;3.60;;;2.23;;
10311;SDS011;5201;48.776;9.128;2022-10-04T23:17:55;4.30;;;2.20;;
10311;SDS011;5201;48.776;9.128;2022-10-04T23:20:21;6.00;;;2.17;;
10311;SDS011;5201;48.776;9.128;2022-10-04T23:22:48;4.43;;;1.90;;
10311;SDS011;5201;48.776;9.128;2022-10-04T23:25:24;2.80;;;2.17;;
10311;SDS011;5201;48.776;9.128;2022-10-04T23:27:51;2.50;;;2.30;;
10311;SDS011;5201;48.776;9.128;2022-10-04T23:30:22;2.23;;;2.03;;
10311;SDS011;5201;48.776;9.128;2022-10-04T23:32:49;3.03;;;2.40;;
10311;SDS011;5201;48.776;9.128;2022-10-04T23:35:20;2.53;;;2.33;;
10311;SDS011;5201;48.776;9.128;2022-10-04T23:37:53;5.93;;;2.07;;
10311;SDS011;5201;48.776;9.128;2022-10-04T23:40:20;2.67;;;2.47;;
10311;SDS011;5201;48.776;9.128;2022-10-04T23:42:47;4.30;;;2.27;;
10311;SDS011;5201;48.776;9.128;2022-10-04T23:45:15;4.27;;;2.67;;
10311;SDS011;5201;48.776;9.128;2022-10-04T23:47:43;6.07;;;2.47;;
10311;SDS011;5201;48.776;9.128;2022-10-04T23:50:17;7.57;;;2.20;;
10311;SDS011;5201;48.776;9.128;2022-10-04T23:52:53;2.50;;;2.30;;
10311;SDS011;5201;48.776;9.128;2022-10-04T23:55:22;2.43;;;2.23;;
10311;SDS011;5201;48.776;9.128;2022-10-04T23:57:50;2.87;;;2.20;;
